Time;durP1;ratioP1;P1;durP2;ratioP2;P2;SDS_P1;SDS_P2;PMS_P1;PMS_P2;Temp;Humidity;BMP_temperature;BMP_pressure;BME280_temperature;BME280_humidity;BME280_pressure;Samples;Min_cycle;Max_cycle;Signal;HPM_P1;HPM_P2
2022/07/21 00:00:44;;;;;;;1999.90;999.90;;;20.20;99.90;;;;;;5011895;28;20417;-69
2022/07/21 00:03:10;;;;;;;1999.90;999.90;;;20.10;99.90;;;;;;5001527;28;20442;-68
2022/07/21 00:05:36;;;;;;;1999.90;999.90;;;20.10;99.90;;;;;;4994900;28;20191;-68
2022/07/21 00:08:01;;;;;;;1999.90;999.90;;;20.10;99.90;;;;;;4994546;28;20550;-68
2022/07/21 00:10:27;;;;;;;1999.90;999.90;;;20.10;99.90;;;;;;4994752;28;20571;-68
2022/07/21 00:12:54;;;;;;;1999.90;999.90;;;20.10;99.90;;;;;;4994909;28;20170;-68
2022/07/21 00:15:22;;;;;;;1999.90;999.90;;;20.10;99.90;;;;;;4994714;28;20649;-68
2022/07/21 00:17:48;;;;;;;1999.90;999.90;;;20.10;99.90;;;;;;4994400;28;20824;-69
2022/07/21 00:20:16;;;;;;;1999.90;999.90;;;20.10;99.90;;;;;;4994614;28;20409;-68
2022/07/21 00:22:43;;;;;;;1999.90;999.90;;;20.10;99.90;;;;;;4994990;28;20170;-68
2022/07/21 00:25:11;;;;;;;1999.90;999.90;;;20.10;99.90;;;;;;4994680;28;20383;-68
2022/07/21 00:27:36;;;;;;;1999.90;999.90;;;20.10;99.90;;;;;;4994303;28;20418;-69
2022/07/21 00:30:08;;;;;;;1999.90;999.90;;;20.20;99.90;;;;;;4994376;28;20468;-68
2022/07/21 00:32:34;;;;;;;1999.90;999.90;;;20.20;99.90;;;;;;4994457;28;20176;-69
2022/07/21 00:35:00;;;;;;;1999.90;999.90;;;20.30;99.90;;;;;;4994272;28;20427;-69
2022/07/21 00:37:27;;;;;;;1999.90;999.90;;;20.30;99.90;;;;;;4994547;28;20450;-67
2022/07/21 00:39:53;;;;;;;1999.90;999.90;;;20.40;99.90;;;;;;4996646;28;20194;-68
2022/07/21 00:42:25;;;;;;;1999.90;999.90;;;20.30;99.90;;;;;;5006165;28;20389;-68
2022/07/21 00:44:51;;;;;;;1999.90;999.90;;;20.30;99.90;;;;;;5007502;28;20448;-69
2022/07/21 00:47:23;;;;;;;1999.90;999.90;;;20.20;99.90;;;;;;5002999;28;20871;-67
2022/07/21 00:49:49;;;;;;;1999.90;999.90;;;20.10;99.90;;;;;;4994310;28;20454;-68
2022/07/21 00:52:15;;;;;;;1999.90;999.90;;;20.00;99.90;;;;;;4994502;28;20401;-68
2022/07/21 00:54:41;;;;;;;1999.90;999.90;;;20.00;99.90;;;;;;4994326;28;20406;-68
2022/07/21 00:57:07;;;;;;;1999.90;999.90;;;20.00;99.90;;;;;;4994094;28;20440;-68
2022/07/21 00:59:33;;;;;;;1999.90;999.90;;;20.00;99.90;;;;;;4994163;28;20456;-68
2022/07/21 01:01:59;;;;;;;1999.90;999.90;;;20.00;99.90;;;;;;4994154;28;20444;-67
2022/07/21 01:04:26;;;;;;;1999.90;999.90;;;20.00;99.90;;;;;;4994314;28;20625;-67
2022/07/21 01:06:53;;;;;;;1999.90;999.90;;;20.00;99.90;;;;;;4994134;28;20190;-68
2022/07/21 01:09:20;;;;;;;1999.90;999.90;;;20.10;99.90;;;;;;4993945;28;20850;-68
2022/07/21 01:11:46;;;;;;;1999.90;999.90;;;20.10;99.90;;;;;;4993816;28;20383;-67
2022/07/21 01:14:12;;;;;;;1999.90;999.90;;;20.10;99.90;;;;;;4993711;28;20420;-67
2022/07/21 01:16:38;;;;;;;1999.90;999.90;;;20.10;99.90;;;;;;4993509;28;20787;-68
2022/07/21 01:19:06;;;;;;;1999.90;999.90;;;20.10;99.90;;;;;;4993727;28;20814;-68
2022/07/21 01:21:43;;;;;;;1999.90;999.90;;;20.10;99.90;;;;;;4993553;28;20171;-68
2022/07/21 01:24:09;;;;;;;1999.90;999.90;;;20.10;99.90;;;;;;4993549;28;20906;-68
2022/07/21 01:26:43;;;;;;;1999.90;999.90;;;20.20;99.90;;;;;;4993166;28;20513;-67
2022/07/21 01:29:10;;;;;;;1999.90;999.90;;;20.20;99.90;;;;;;4993722;28;20438;-68
2022/07/21 01:31:36;;;;;;;1999.90;999.90;;;20.30;99.90;;;;;;4995261;28;20387;-67
2022/07/21 01:34:03;;;;;;;1999.90;999.90;;;20.30;99.90;;;;;;4994128;28;20381;-68
2022/07/21 01:36:28;;;;;;;1999.90;999.90;;;20.30;99.90;;;;;;4992861;28;20446;-68
2022/07/21 01:41:38;;;;;;;1999.90;999.90;;;20.30;99.90;;;;;;4993351;28;20184;-67
2022/07/21 01:44:06;;;;;;;1999.90;999.90;;;20.30;99.90;;;;;;4995111;28;20501;-68
2022/07/21 01:46:35;;;;;;;1999.90;999.90;;;20.30;99.90;;;;;;4994547;28;20179;-68
2022/07/21 01:49:01;;;;;;;1999.90;999.90;;;20.30;99.90;;;;;;4995371;28;20403;-67
2022/07/21 01:51:26;;;;;;;1999.90;999.90;;;20.30;99.90;;;;;;4994959;28;20792;-67
2022/07/21 01:53:53;;;;;;;1999.90;999.90;;;20.20;99.90;;;;;;4994551;28;20257;-68
2022/07/21 01:56:23;;;;;;;1999.90;999.90;;;20.30;99.90;;;;;;4994327;28;20195;-67
2022/07/21 01:58:51;;;;;;;1999.90;999.90;;;20.20;99.90;;;;;;4994921;28;20409;-67
2022/07/21 02:01:18;;;;;;;1999.90;999.90;;;20.20;99.90;;;;;;4994464;28;20923;-68
2022/07/21 02:03:44;;;;;;;1999.90;999.90;;;20.20;99.90;;;;;;4993755;28;20409;-67
2022/07/21 02:06:10;;;;;;;1999.90;999.90;;;20.30;99.90;;;;;;4993828;28;20402;-68
2022/07/21 02:08:36;;;;;;;1999.90;999.90;;;20.10;99.90;;;;;;4995199;28;20518;-67
2022/07/21 02:11:02;;;;;;;1999.90;999.90;;;20.10;99.90;;;;;;4994299;28;20332;-67
2022/07/21 02:13:27;;;;;;;1999.90;999.90;;;20.00;99.90;;;;;;4993069;28;20489;-68
2022/07/21 02:15:53;;;;;;;1999.90;999.90;;;20.00;99.90;;;;;;4993250;28;20801;-67
2022/07/21 02:18:20;;;;;;;1999.90;999.90;;;19.90;99.90;;;;;;4992988;28;20178;-67
2022/07/21 02:20:47;;;;;;;1999.90;999.90;;;19.90;99.90;;;;;;4993523;28;20184;-67
2022/07/21 02:23:13;;;;;;;1999.90;999.90;;;19.80;99.90;;;;;;4993619;28;20414;-68
2022/07/21 02:25:39;;;;;;;1999.90;999.90;;;19.80;99.90;;;;;;4992683;28;20454;-67
2022/07/21 02:28:05;;;;;;;1999.90;999.90;;;19.90;99.90;;;;;;4992827;28;20405;-68
2022/07/21 02:30:31;;;;;;;1999.90;999.90;;;19.90;99.90;;;;;;4992665;28;20960;-68
2022/07/21 02:32:56;;;;;;;1999.90;999.90;;;19.90;99.90;;;;;;4992945;28;20405;-67
2022/07/21 02:35:22;;;;;;;1999.90;999.90;;;19.90;99.90;;;;;;4992671;28;20177;-67
2022/07/21 02:37:47;;;;;;;1999.90;999.90;;;19.90;99.90;;;;;;4992940;28;20256;-68
2022/07/21 02:40:13;;;;;;;1999.90;999.90;;;19.90;99.90;;;;;;4992929;28;20224;-68
2022/07/21 02:42:39;;;;;;;1999.90;999.90;;;19.90;99.90;;;;;;4992947;28;20261;-67
2022/07/21 02:45:09;;;;;;;1999.90;999.90;;;19.90;99.90;;;;;;4993986;28;20178;-67
2022/07/21 02:47:58;;;;;;;1999.90;999.90;;;19.90;99.90;;;;;;4994720;28;20197;-67
2022/07/21 02:50:25;;;;;;;1999.90;999.90;;;19.90;99.90;;;;;;4994844;28;20452;-68
2022/07/21 02:52:56;;;;;;;1999.90;999.90;;;19.70;99.90;;;;;;4994299;28;20417;-68
2022/07/21 02:55:22;;;;;;;1999.90;999.90;;;19.70;99.90;;;;;;4994794;28;20415;-68
2022/07/21 02:57:47;;;;;;;1999.90;999.90;;;19.70;99.90;;;;;;4995329;28;20435;-67
2022/07/21 03:00:13;;;;;;;1999.90;999.90;;;19.70;99.90;;;;;;4995488;28;20412;-67
2022/07/21 03:02:39;;;;;;;1999.90;999.90;;;19.70;99.90;;;;;;4995269;28;20256;-67
2022/07/21 03:05:05;;;;;;;1999.90;999.90;;;19.70;99.90;;;;;;4995460;28;20484;-67
2022/07/21 03:07:31;;;;;;;1999.90;999.90;;;19.60;99.90;;;;;;4994929;28;20254;-67
2022/07/21 03:09:56;;;;;;;1999.90;999.90;;;19.50;99.90;;;;;;4995440;28;20460;-67
2022/07/21 03:12:22;;;;;;;1999.90;999.90;;;19.50;99.90;;;;;;4995569;28;20244;-68
2022/07/21 03:14:47;;;;;;;1999.90;999.90;;;19.50;99.90;;;;;;4994586;28;20172;-68
2022/07/21 03:17:13;;;;;;;1999.90;999.90;;;19.50;99.90;;;;;;4994186;28;20204;-68
2022/07/21 03:19:39;;;;;;;1999.90;999.90;;;19.60;99.90;;;;;;4997972;28;20669;-68
2022/07/21 03:22:05;;;;;;;1999.90;999.90;;;19.60;99.90;;;;;;4997500;28;20177;-68
2022/07/21 03:24:31;;;;;;;1999.90;999.90;;;19.60;99.90;;;;;;4999184;28;20800;-68
2022/07/21 03:26:56;;;;;;;1999.90;999.90;;;19.60;99.90;;;;;;4997204;28;20403;-67
2022/07/21 03:29:22;;;;;;;1999.90;999.90;;;19.60;99.90;;;;;;4996625;28;20268;-67
2022/07/21 03:31:48;;;;;;;1999.90;999.90;;;19.70;99.90;;;;;;4996492;28;20252;-68
2022/07/21 03:34:13;;;;;;;1999.90;999.90;;;19.70;99.90;;;;;;4996546;28;20180;-68
2022/07/21 03:36:39;;;;;;;1999.90;999.90;;;19.70;99.90;;;;;;4995957;28;20292;-68
2022/07/21 03:39:05;;;;;;;1999.90;999.90;;;19.70;99.90;;;;;;4996378;28;20170;-67
2022/07/21 03:41:31;;;;;;;1999.90;999.90;;;19.70;99.90;;;;;;4996087;28;20239;-67
2022/07/21 03:43:56;;;;;;;1999.90;999.90;;;19.70;99.90;;;;;;4995865;28;20441;-67
2022/07/21 03:46:23;;;;;;;1999.90;999.90;;;19.70;99.90;;;;;;4995859;28;20196;-67
2022/07/21 03:48:48;;;;;;;1999.90;999.90;;;19.60;99.90;;;;;;4996128;28;20187;-67
2022/07/21 03:51:14;;;;;;;1999.90;999.90;;;19.60;99.90;;;;;;4996052;28;20384;-68
2022/07/21 03:53:40;;;;;;;1999.90;999.90;;;19.60;99.90;;;;;;4996096;28;20174;-68
2022/07/21 03:56:05;;;;;;;1999.90;999.90;;;19.60;99.90;;;;;;4995799;28;20194;-68
2022/07/21 03:58:31;;;;;;;1999.90;999.90;;;19.70;99.90;;;;;;4995888;28;20178;-68
2022/07/21 04:00:57;;;;;;;1999.90;999.90;;;19.70;99.90;;;;;;4996166;28;20185;-68
2022/07/21 04:03:22;;;;;;;1999.90;999.90;;;19.70;99.90;;;;;;4995842;28;20815;-67
2022/07/21 04:05:48;;;;;;;1999.90;999.90;;;19.70;99.90;;;;;;4995702;28;20199;-66
2022/07/21 04:08:14;;;;;;;1999.90;999.90;;;19.70;99.90;;;;;;4995695;28;20194;-67
2022/07/21 04:10:41;;;;;;;1999.90;999.90;;;19.70;99.90;;;;;;4995713;28;21017;-68
2022/07/21 04:13:09;;;;;;;1999.90;999.90;;;19.70;99.90;;;;;;4994609;28;20205;-67
2022/07/21 04:15:35;;;;;;;1999.90;999.90;;;19.80;99.90;;;;;;4995697;28;20421;-67
2022/07/21 04:18:02;;;;;;;1999.90;999.90;;;19.80;99.90;;;;;;4995233;28;20409;-68
2022/07/21 04:20:28;;;;;;;1999.90;999.90;;;19.80;99.90;;;;;;4995346;28;20756;-67
2022/07/21 04:22:54;;;;;;;1999.90;999.90;;;19.80;99.90;;;;;;4995164;28;20398;-67
2022/07/21 04:25:21;;;;;;;1999.90;999.90;;;19.90;99.90;;;;;;4995149;28;20398;-67
2022/07/21 04:27:47;;;;;;;1999.90;999.90;;;19.90;99.90;;;;;;4995024;28;20819;-68
2022/07/21 04:30:18;;;;;;;1999.90;999.90;;;19.90;99.90;;;;;;4995120;28;20435;-68
2022/07/21 04:32:44;;;;;;;1999.90;999.90;;;19.90;99.90;;;;;;4995143;28;20870;-67
2022/07/21 04:35:11;;;;;;;1999.90;999.90;;;19.90;99.90;;;;;;4994066;28;20458;-67
2022/07/21 04:37:37;;;;;;;1999.90;999.90;;;20.00;99.90;;;;;;4994723;28;20422;-67
2022/07/21 04:40:06;;;;;;;1999.90;999.90;;;20.00;99.90;;;;;;4994912;28;20413;-68
2022/07/21 04:42:32;;;;;;;1999.90;999.90;;;20.00;99.90;;;;;;4995327;28;20428;-68
2022/07/21 04:44:58;;;;;;;1999.90;999.90;;;20.00;99.90;;;;;;4995644;28;20391;-68
2022/07/21 04:47:23;;;;;;;1999.90;999.90;;;19.90;99.90;;;;;;4995107;28;20808;-68
2022/07/21 04:49:49;;;;;;;1999.90;999.90;;;19.90;99.90;;;;;;4995043;28;20205;-68
2022/07/21 04:52:15;;;;;;;1999.90;999.90;;;20.00;99.90;;;;;;4994958;28;20260;-67
2022/07/21 04:54:40;;;;;;;1999.90;999.90;;;20.10;99.90;;;;;;4994937;28;20170;-68
2022/07/21 04:57:06;;;;;;;1999.90;999.90;;;20.10;99.90;;;;;;4994261;28;20239;-69
2022/07/21 04:59:33;;;;;;;1999.90;999.90;;;20.10;99.90;;;;;;4994903;28;20173;-68
2022/07/21 05:01:59;;;;;;;1999.90;999.90;;;20.10;99.90;;;;;;4995337;28;20902;-68
2022/07/21 05:04:25;;;;;;;1999.90;999.90;;;20.10;99.90;;;;;;4995649;28;20408;-68
2022/07/21 05:06:50;;;;;;;1999.90;999.90;;;20.10;99.90;;;;;;4995518;28;20482;-68
2022/07/21 05:09:16;;;;;;;1999.90;999.90;;;20.10;99.90;;;;;;4995962;28;21045;-68
2022/07/21 05:11:42;;;;;;;1999.90;999.90;;;20.10;99.90;;;;;;4995782;28;20185;-68
2022/07/21 05:14:08;;;;;;;1999.90;999.90;;;20.00;99.90;;;;;;4995209;28;20174;-68
2022/07/21 05:16:33;;;;;;;1999.90;999.90;;;20.10;99.90;;;;;;4993943;28;20697;-68
2022/07/21 05:18:59;;;;;;;1999.90;999.90;;;20.00;99.90;;;;;;4994712;28;20512;-67
2022/07/21 05:21:24;;;;;;;1999.90;999.90;;;20.00;99.90;;;;;;4996481;28;20531;-67
2022/07/21 05:23:50;;;;;;;1999.90;999.90;;;20.00;99.90;;;;;;4995405;28;20170;-68
2022/07/21 05:26:16;;;;;;;1999.90;999.90;;;20.00;99.90;;;;;;4996412;28;20193;-68
2022/07/21 05:28:41;;;;;;;1999.90;999.90;;;20.00;99.90;;;;;;4994490;28;20632;-67
2022/07/21 05:31:08;;;;;;;1999.90;999.90;;;20.00;99.90;;;;;;4993571;28;20201;-67
2022/07/21 05:33:34;;;;;;;1999.90;999.90;;;20.10;99.90;;;;;;4994674;28;20662;-68
2022/07/21 05:36:00;;;;;;;1999.90;999.90;;;19.90;99.90;;;;;;4994146;28;20946;-67
2022/07/21 05:38:25;;;;;;;1999.90;999.90;;;19.90;99.90;;;;;;4994072;28;20406;-67
2022/07/21 05:40:51;;;;;;;1999.90;999.90;;;19.90;99.90;;;;;;4993606;28;20208;-67
2022/07/21 05:43:17;;;;;;;1999.90;999.90;;;19.80;99.90;;;;;;4993608;28;20664;-67
2022/07/21 05:45:42;;;;;;;1999.90;999.90;;;19.80;99.90;;;;;;4993168;28;20236;-67
2022/07/21 05:48:08;;;;;;;1999.90;999.90;;;19.80;99.90;;;;;;4992995;28;20245;-67
2022/07/21 05:50:33;;;;;;;1999.90;999.90;;;19.90;99.90;;;;;;4993347;28;20194;-67
2022/07/21 05:52:59;;;;;;;1999.90;999.90;;;19.90;99.90;;;;;;4993885;28;20174;-67
2022/07/21 05:55:25;;;;;;;1999.90;999.90;;;19.90;99.90;;;;;;4994604;28;20220;-67
2022/07/21 05:57:50;;;;;;;1999.90;999.90;;;19.90;99.90;;;;;;4993409;28;20171;-67
2022/07/21 06:00:17;;;;;;;1999.90;999.90;;;20.00;99.90;;;;;;4993099;28;20193;-68
2022/07/21 06:02:46;;;;;;;1999.90;999.90;;;20.00;99.90;;;;;;4993513;28;20174;-67
2022/07/21 06:05:11;;;;;;;1999.90;999.90;;;20.10;99.90;;;;;;4992995;28;20426;-67
2022/07/21 06:07:39;;;;;;;1999.90;999.90;;;20.20;99.90;;;;;;4992886;28;20414;-67
2022/07/21 06:10:06;;;;;;;1999.90;999.90;;;20.30;99.90;;;;;;4992976;28;20205;-67
2022/07/21 06:12:33;;;;;;;1999.90;999.90;;;20.40;99.90;;;;;;4992831;28;20398;-67
2022/07/21 06:14:58;;;;;;;1999.90;999.90;;;20.60;99.90;;;;;;4992875;28;20409;-68
2022/07/21 06:17:24;;;;;;;1999.90;999.90;;;20.70;99.90;;;;;;4994948;28;20951;-67
2022/07/21 06:19:50;;;;;;;1999.90;999.90;;;20.70;99.90;;;;;;4995804;28;20174;-67
2022/07/21 06:22:15;;;;;;;1999.90;999.90;;;20.80;99.90;;;;;;4996085;28;20178;-67
2022/07/21 06:24:41;;;;;;;1999.90;999.90;;;20.90;99.90;;;;;;4995675;28;20174;-67
2022/07/21 06:27:07;;;;;;;1999.90;999.90;;;20.90;99.90;;;;;;4995698;28;20198;-67
2022/07/21 06:29:33;;;;;;;1999.90;999.90;;;21.10;99.90;;;;;;4995825;28;20230;-67
2022/07/21 06:31:58;;;;;;;1999.90;999.90;;;21.10;99.90;;;;;;4995193;28;20198;-67
2022/07/21 06:34:24;;;;;;;1999.90;999.90;;;21.10;99.90;;;;;;4994364;28;20167;-68
2022/07/21 06:36:49;;;;;;;1999.90;999.90;;;21.10;99.90;;;;;;4993813;28;20213;-67
2022/07/21 06:39:15;;;;;;;1999.90;999.90;;;21.10;99.90;;;;;;4997719;28;20174;-67
2022/07/21 06:41:41;;;;;;;1999.90;999.90;;;21.10;99.90;;;;;;4996478;28;20186;-67
2022/07/21 06:44:06;;;;;;;1999.90;999.90;;;21.20;99.90;;;;;;4994816;28;20710;-68
2022/07/21 06:46:34;;;;;;;1999.90;999.90;;;21.30;99.90;;;;;;4992945;28;20198;-67
2022/07/21 06:49:00;;;;;;;1999.90;999.90;;;21.30;99.90;;;;;;4992820;28;20166;-68
2022/07/21 06:51:25;;;;;;;1999.90;999.90;;;21.30;99.90;;;;;;4992888;28;20414;-67
2022/07/21 06:53:51;;;;;;;1999.90;999.90;;;21.30;99.90;;;;;;4992506;28;20391;-66
2022/07/21 06:56:18;;;;;;;1999.90;999.90;;;21.40;99.90;;;;;;4992532;28;20707;-67
2022/07/21 06:58:43;;;;;;;1999.90;999.90;;;21.50;99.90;;;;;;4994018;28;20174;-68
2022/07/21 07:01:09;;;;;;;1999.90;999.90;;;21.50;99.90;;;;;;4996906;28;20392;-68
2022/07/21 07:03:35;;;;;;;1999.90;999.90;;;21.60;99.90;;;;;;4997503;28;20175;-67
2022/07/21 07:06:01;;;;;;;1999.90;999.90;;;21.60;99.90;;;;;;4997053;28;20192;-66
2022/07/21 07:08:27;;;;;;;1999.90;999.90;;;21.60;99.90;;;;;;4996357;28;20946;-67
2022/07/21 07:10:52;;;;;;;1999.90;999.90;;;21.70;99.90;;;;;;4996254;28;20460;-68
2022/07/21 07:13:18;;;;;;;1999.90;999.90;;;21.70;99.90;;;;;;4996200;28;20164;-67
2022/07/21 07:15:44;;;;;;;1999.90;999.90;;;21.80;99.90;;;;;;4996192;28;20693;-67
2022/07/21 07:18:10;;;;;;;1999.90;999.90;;;21.90;99.90;;;;;;4997309;28;20164;-68
2022/07/21 07:20:36;;;;;;;1999.90;999.90;;;22.00;99.90;;;;;;4998658;28;20394;-67
2022/07/21 07:23:03;;;;;;;1999.90;999.90;;;22.20;99.90;;;;;;4996890;28;20208;-67
2022/07/21 07:25:28;;;;;;;1999.90;999.90;;;22.30;99.90;;;;;;4997740;28;20377;-68
2022/07/21 07:27:56;;;;;;;1999.90;999.90;;;22.40;99.90;;;;;;4998079;28;20466;-68
2022/07/21 07:30:21;;;;;;;1999.90;999.90;;;22.60;99.90;;;;;;5000364;28;20686;-67
2022/07/21 07:32:47;;;;;;;1999.90;999.90;;;22.70;99.90;;;;;;4999091;28;20550;-68
2022/07/21 07:35:14;;;;;;;1999.90;999.90;;;22.80;99.90;;;;;;4997139;28;20251;-68
2022/07/21 07:37:41;;;;;;;1999.90;999.90;;;23.00;99.90;;;;;;4995599;28;20157;-67
2022/07/21 07:40:10;;;;;;;1999.90;999.90;;;23.20;99.90;;;;;;4995910;28;20394;-67
2022/07/21 07:42:37;;;;;;;1999.90;999.90;;;23.30;99.90;;;;;;4998028;28;20776;-67
2022/07/21 07:45:05;;;;;;;1999.90;999.90;;;23.20;99.90;;;;;;4997267;28;20419;-68
2022/07/21 07:47:31;;;;;;;1999.90;999.90;;;23.10;99.90;;;;;;4995327;28;20441;-68
2022/07/21 07:49:57;;;;;;;1999.90;999.90;;;23.10;99.90;;;;;;4995170;28;20464;-67
2022/07/21 07:52:23;;;;;;;1999.90;999.90;;;23.10;99.90;;;;;;4995211;28;20929;-67
2022/07/21 07:54:49;;;;;;;1999.90;999.90;;;23.20;99.90;;;;;;4995135;28;20482;-68
2022/07/21 07:57:15;;;;;;;1999.90;999.90;;;23.30;99.90;;;;;;4995442;28;20420;-68
2022/07/21 07:59:40;;;;;;;1999.90;999.90;;;23.30;99.90;;;;;;4996266;28;20180;-67
2022/07/21 08:02:06;;;;;;;1999.90;999.90;;;23.30;99.90;;;;;;4995514;28;20255;-68
2022/07/21 08:04:32;;;;;;;1999.90;999.90;;;23.40;99.90;;;;;;4995519;28;20688;-68
2022/07/21 08:06:57;;;;;;;1999.90;999.90;;;23.50;99.90;;;;;;4995443;28;20411;-68
2022/07/21 08:09:23;;;;;;;1999.90;999.90;;;23.50;99.90;;;;;;4995509;28;20204;-68
2022/07/21 08:11:50;;;;;;;1999.90;999.90;;;23.50;99.90;;;;;;4995378;28;20216;-68
2022/07/21 08:14:16;;;;;;;1999.90;999.90;;;23.30;99.90;;;;;;4995410;28;20639;-67
2022/07/21 08:16:42;;;;;;;1999.90;999.90;;;23.20;99.90;;;;;;4995283;28;20403;-67
2022/07/21 08:19:08;;;;;;;1999.90;999.90;;;22.90;99.90;;;;;;4995656;28;20663;-67
2022/07/21 08:21:34;;;;;;;1999.90;999.90;;;22.80;99.90;;;;;;4995419;28;20820;-68
2022/07/21 08:24:01;;;;;;;1999.90;999.90;;;22.90;99.90;;;;;;4995163;28;20409;-67
2022/07/21 08:26:27;;;;;;;1999.90;999.90;;;22.90;99.90;;;;;;4995027;28;20284;-67
2022/07/21 08:28:54;;;;;;;1999.90;999.90;;;22.80;99.90;;;;;;4995440;28;20420;-67
2022/07/21 08:31:19;;;;;;;1999.90;999.90;;;22.80;99.90;;;;;;4995313;28;20455;-68
2022/07/21 08:33:45;;;;;;;1999.90;999.90;;;22.60;99.90;;;;;;4995079;28;20407;-67
2022/07/21 08:36:11;;;;;;;1999.90;999.90;;;22.70;99.90;;;;;;4994649;28;20209;-68
2022/07/21 08:38:37;;;;;;;1999.90;999.90;;;22.80;99.90;;;;;;4995279;28;20173;-67
2022/07/21 08:41:02;;;;;;;1999.90;999.90;;;22.90;99.90;;;;;;4995408;28;20177;-68
2022/07/21 08:43:29;;;;;;;1999.90;999.90;;;22.90;99.90;;;;;;4995510;28;20196;-67
2022/07/21 08:45:55;;;;;;;1999.90;999.90;;;23.00;99.90;;;;;;4994614;28;20200;-68
2022/07/21 08:48:24;;;;;;;1999.90;999.90;;;23.00;99.90;;;;;;4995075;28;20421;-68
2022/07/21 08:50:51;;;;;;;1999.90;999.90;;;23.10;99.90;;;;;;4994787;28;20455;-67
2022/07/21 08:53:16;;;;;;;1999.90;999.90;;;23.00;99.90;;;;;;4995146;28;20746;-66
2022/07/21 08:55:42;;;;;;;1999.90;999.90;;;23.00;99.90;;;;;;4993886;28;20405;-66
2022/07/21 08:58:10;;;;;;;1999.90;999.90;;;23.10;99.90;;;;;;5000119;28;20257;-67
2022/07/21 09:00:37;;;;;;;1999.90;999.90;;;23.10;99.90;;;;;;4996390;28;20165;-68
2022/07/21 09:03:13;;;;;;;1999.90;999.90;;;23.20;99.90;;;;;;4993943;28;20900;-66
2022/07/21 09:05:39;;;;;;;1999.90;999.90;;;23.30;99.90;;;;;;4994361;28;20756;-66
2022/07/21 09:08:04;;;;;;;1999.90;999.90;;;23.30;99.90;;;;;;4993471;28;20433;-68
2022/07/21 09:10:33;;;;;;;1999.90;999.90;;;23.40;99.90;;;;;;4993629;28;20438;-67
2022/07/21 09:13:04;;;;;;;1999.90;999.90;;;23.30;99.90;;;;;;4994098;28;20182;-68
2022/07/21 09:15:32;;;;;;;1999.90;999.90;;;23.30;99.90;;;;;;4995653;28;20871;-67
2022/07/21 09:18:13;;;;;;;1999.90;999.90;;;23.30;99.90;;;;;;4999948;28;20406;-67
2022/07/21 09:20:47;;;;;;;1999.90;999.90;;;23.30;99.90;;;;;;4994197;28;20387;-67
2022/07/21 09:23:15;;;;;;;1999.90;999.90;;;23.40;99.90;;;;;;4993795;28;20474;-67
2022/07/21 09:25:47;;;;;;;1999.90;999.90;;;23.40;99.90;;;;;;4993748;28;20471;-68
2022/07/21 09:28:25;;;;;;;1999.90;999.90;;;23.40;99.90;;;;;;4993830;28;20393;-68
2022/07/21 09:30:55;;;;;;;1999.90;999.90;;;23.40;99.90;;;;;;4993674;28;20419;-68
2022/07/21 09:33:32;;;;;;;1999.90;999.90;;;23.30;99.90;;;;;;4993810;28;20452;-68
2022/07/21 09:36:04;;;;;;;1999.90;999.90;;;23.30;99.90;;;;;;4993489;28;20444;-68
2022/07/21 09:38:33;;;;;;;1999.90;999.90;;;23.30;99.90;;;;;;4993895;28;20448;-68
2022/07/21 09:41:07;;;;;;;1999.90;999.90;;;23.30;99.90;;;;;;4993635;28;20390;-67
2022/07/21 09:43:45;;;;;;;1999.90;999.90;;;23.50;99.90;;;;;;4993660;28;20438;-68
2022/07/21 09:46:16;;;;;;;1999.90;999.90;;;23.70;99.90;;;;;;4993734;28;20483;-68
2022/07/21 09:48:44;;;;;;;1999.90;999.90;;;23.60;99.90;;;;;;4993491;28;20359;-68
2022/07/21 09:51:27;;;;;;;1999.90;999.90;;;23.60;99.90;;;;;;4993540;28;20423;-67
2022/07/21 09:53:55;;;;;;;1999.90;999.90;;;23.60;99.90;;;;;;4993567;28;20914;-68
2022/07/21 09:56:22;;;;;;;1999.90;999.90;;;23.40;99.90;;;;;;4998007;28;20403;-68
2022/07/21 09:58:51;;;;;;;1999.90;999.90;;;23.30;99.90;;;;;;4999320;28;20419;-67
2022/07/21 10:01:16;;;;;;;1999.90;999.90;;;23.20;99.90;;;;;;4998674;28;20385;-68
2022/07/21 10:03:48;;;;;;;1999.90;999.90;;;23.20;99.90;;;;;;4999371;28;20503;-68
2022/07/21 10:06:16;;;;;;;1999.90;999.90;;;23.10;99.90;;;;;;4999041;28;20431;-68
2022/07/21 10:08:43;;;;;;;1999.90;999.90;;;23.10;99.90;;;;;;4999003;28;20480;-68
2022/07/21 10:11:09;;;;;;;1999.90;999.90;;;23.00;99.90;;;;;;4999686;28;20426;-67
2022/07/21 10:13:37;;;;;;;1999.90;999.90;;;22.80;99.90;;;;;;4999346;28;20375;-67
2022/07/21 10:16:03;;;;;;;1999.90;999.90;;;22.70;99.90;;;;;;4998128;28;20433;-68
2022/07/21 10:18:35;;;;;;;1999.90;999.90;;;22.60;99.90;;;;;;4999561;28;20498;-67
2022/07/21 10:21:37;;;;;;;1999.90;999.90;;;22.60;99.90;;;;;;4999668;28;20411;-67
2022/07/21 10:24:04;;;;;;;1999.90;999.90;;;22.50;99.90;;;;;;4996782;28;20414;-67
2022/07/21 10:26:30;;;;;;;1999.90;999.90;;;22.40;99.90;;;;;;4993216;28;20410;-66
2022/07/21 10:28:56;;;;;;;1999.90;999.90;;;22.10;99.90;;;;;;4993486;28;20405;-67
2022/07/21 10:31:27;;;;;;;1999.90;999.90;;;21.80;99.90;;;;;;4993313;28;20286;-67
2022/07/21 10:33:56;;;;;;;1999.90;999.90;;;21.70;99.90;;;;;;4995972;28;20163;-67
2022/07/21 10:36:27;;;;;;;1999.90;999.90;;;21.50;99.90;;;;;;4997795;28;20459;-67
2022/07/21 10:39:17;;;;;;;1999.90;999.90;;;21.30;99.90;;;;;;4998431;28;20398;-67
2022/07/21 10:41:49;;;;;;;1999.90;999.90;;;21.10;99.90;;;;;;4998399;28;20404;-66
2022/07/21 10:44:27;;;;;;;1999.90;999.90;;;21.00;99.90;;;;;;4998963;28;20380;-67
2022/07/21 10:47:18;;;;;;;1999.90;999.90;;;20.90;99.90;;;;;;4998044;28;20853;-67
2022/07/21 10:50:01;;;;;;;1999.90;999.90;;;20.80;99.90;;;;;;4998136;28;20453;-67
2022/07/21 10:52:35;;;;;;;1999.90;999.90;;;20.60;99.90;;;;;;4997799;28;20493;-67
2022/07/21 10:55:10;;;;;;;1999.90;999.90;;;20.50;99.90;;;;;;4997609;28;20407;-67
2022/07/21 10:57:46;;;;;;;1999.90;999.90;;;20.20;99.90;;;;;;4997011;28;20515;-67
2022/07/21 11:00:18;;;;;;;1999.90;999.90;;;20.10;99.90;;;;;;4997452;28;20411;-67
2022/07/21 11:02:48;;;;;;;1999.90;999.90;;;20.00;99.90;;;;;;4997750;28;20920;-67
2022/07/21 11:05:13;;;;;;;1999.90;999.90;;;19.90;99.90;;;;;;4998338;28;20438;-67
2022/07/21 11:08:10;;;;;;;1999.90;999.90;;;19.70;99.90;;;;;;4997472;28;20437;-67
2022/07/21 11:10:48;;;;;;;1999.90;999.90;;;19.70;99.90;;;;;;4996698;28;20200;-68
2022/07/21 11:13:15;;;;;;;1999.90;999.90;;;19.50;99.90;;;;;;4996347;28;20404;-67
2022/07/21 11:15:59;;;;;;;1999.90;999.90;;;19.30;99.90;;;;;;4996051;28;20455;-67
2022/07/21 11:18:28;;;;;;;1999.90;999.90;;;19.10;99.90;;;;;;4995924;28;20417;-66
2022/07/21 11:21:19;;;;;;;1999.90;999.90;;;19.00;99.90;;;;;;4995766;28;20492;-67
2022/07/21 11:23:48;;;;;;;1999.90;999.90;;;19.00;99.90;;;;;;4994778;28;20451;-67
2022/07/21 11:26:17;;;;;;;1999.90;999.90;;;18.90;99.90;;;;;;4997900;28;20465;-67
2022/07/21 11:28:44;;;;;;;1999.90;999.90;;;18.90;99.90;;;;;;4999001;28;20413;-67
2022/07/21 11:31:20;;;;;;;1999.90;999.90;;;18.90;99.90;;;;;;4995511;28;20473;-66
2022/07/21 11:33:47;;;;;;;1999.90;999.90;;;18.90;99.90;;;;;;4995648;28;20412;-66
2022/07/21 11:36:27;;;;;;;1999.90;999.90;;;19.00;99.90;;;;;;4995342;28;20451;-68
2022/07/21 11:38:59;;;;;;;1999.90;999.90;;;18.90;99.90;;;;;;4995895;28;20443;-68
2022/07/21 11:41:25;;;;;;;1999.90;999.90;;;18.80;99.90;;;;;;4995423;28;20414;-70
2022/07/21 11:43:51;;;;;;;1999.90;999.90;;;18.80;99.90;;;;;;4994843;28;20743;-68
2022/07/21 11:46:16;;;;;;;1999.90;999.90;;;18.70;99.90;;;;;;4994944;28;20433;-66
2022/07/21 11:48:42;;;;;;;1999.90;999.90;;;18.70;99.90;;;;;;4996486;28;20173;-67
2022/07/21 11:51:08;;;;;;;1999.90;999.90;;;18.80;99.90;;;;;;4995242;28;20237;-68
2022/07/21 11:53:34;;;;;;;1999.90;999.90;;;18.80;99.90;;;;;;4995270;28;20753;-68
2022/07/21 11:56:00;;;;;;;1999.90;999.90;;;18.90;99.90;;;;;;4994857;28;20794;-68
2022/07/21 11:58:25;;;;;;;1999.90;999.90;;;18.90;99.90;;;;;;4995060;28;20534;-68
2022/07/21 12:01:07;;;;;;;1999.90;999.90;;;18.90;99.90;;;;;;4995323;28;20177;-68
2022/07/21 12:03:33;;;;;;;1999.90;999.90;;;18.90;99.90;;;;;;4994934;28;20256;-68